Time;durP1;ratioP1;P1;durP2;ratioP2;P2;SDS_P1;SDS_P2;PMS_P1;PMS_P2;Temp;Humidity;BMP_temperature;BMP_pressure;BME280_temperature;BME280_humidity;BME280_pressure;Samples;Min_cycle;Max_cycle;Signal;HPM_P1;HPM_P2
2022/03/09 00:02:01;;;;;;;33.50;22.63;;;;;;;3.61;88.12;99607.59;5033528;28;20299;-62
2022/03/09 00:04:29;;;;;;;32.03;22.60;;;;;;;3.54;87.99;99613.19;5031754;28;20321;-61
2022/03/09 00:06:56;;;;;;;32.23;22.40;;;;;;;3.52;87.98;99607.16;5050899;28;20197;-62
2022/03/09 00:09:22;;;;;;;31.07;21.33;;;;;;;3.49;87.32;99604.47;5050605;28;20201;-61
2022/03/09 00:11:51;;;;;;;32.93;23.13;;;;;;;3.45;86.80;99608.56;5050720;28;20323;-61
2022/03/09 00:14:18;;;;;;;28.97;21.53;;;;;;;3.37;86.54;99603.94;5050707;28;20644;-61
2022/03/09 00:16:44;;;;;;;28.70;21.93;;;;;;;3.30;87.24;99597.69;5050645;28;20200;-62
2022/03/09 00:19:11;;;;;;;30.93;22.47;;;;;;;3.35;86.98;99601.31;5050641;28;20201;-62
2022/03/09 00:21:39;;;;;;;33.67;23.33;;;;;;;3.29;86.75;99598.50;5050536;28;20209;-60
2022/03/09 00:24:07;;;;;;;33.00;22.00;;;;;;;3.18;87.44;99597.13;5050542;28;20200;-62
2022/03/09 00:26:34;;;;;;;36.58;26.27;;;;;;;3.15;87.65;99591.03;5049824;28;20526;-61
2022/03/09 00:29:02;;;;;;;33.27;23.43;;;;;;;3.22;87.31;99583.78;5032576;28;20325;-62
2022/03/09 00:31:29;;;;;;;35.20;23.60;;;;;;;3.20;87.58;99590.47;5029833;28;20216;-62
2022/03/09 00:33:56;;;;;;;33.43;23.80;;;;;;;3.08;87.17;99583.94;5030384;28;20190;-61
2022/03/09 00:36:23;;;;;;;33.03;22.33;;;;;;;2.98;87.35;99592.78;5030235;28;20216;-61
2022/03/09 00:38:50;;;;;;;33.87;23.63;;;;;;;2.90;87.29;99587.34;5040865;28;20196;-62
2022/03/09 00:41:17;;;;;;;36.37;24.40;;;;;;;2.86;87.48;99585.44;5049216;28;20285;-62
2022/03/09 00:43:44;;;;;;;35.33;23.77;;;;;;;2.89;87.96;99585.59;5049092;28;20198;-62
2022/03/09 00:46:12;;;;;;;35.00;23.60;;;;;;;2.90;87.73;99583.94;5047220;28;20204;-62
2022/03/09 00:48:39;;;;;;;35.47;24.77;;;;;;;2.79;88.02;99580.91;5049733;28;20200;-62
2022/03/09 00:51:07;;;;;;;33.40;21.93;;;;;;;2.80;88.01;99579.25;5049220;28;20758;-62
2022/03/09 00:53:34;;;;;;;35.23;24.27;;;;;;;2.78;88.00;99579.16;5047393;28;20196;-62
2022/03/09 00:56:01;;;;;;;33.77;22.57;;;;;;;2.70;88.11;99565.22;5049675;28;20176;-62
2022/03/09 00:58:28;;;;;;;33.43;24.17;;;;;;;2.87;88.32;99573.66;5049505;28;20225;-58
2022/03/09 01:00:55;;;;;;;33.53;23.30;;;;;;;2.88;87.62;99563.56;5049303;28;20188;-60
2022/03/09 01:03:23;;;;;;;32.87;23.33;;;;;;;2.90;87.50;99556.03;5049424;28;20189;-61
2022/03/09 01:05:50;;;;;;;37.28;30.33;;;;;;;3.02;87.96;99554.09;5048221;28;20451;-62
2022/03/09 01:08:18;;;;;;;33.43;23.47;;;;;;;3.06;87.04;99552.53;5049337;28;20200;-61
2022/03/09 01:10:45;;;;;;;34.83;23.77;;;;;;;3.03;86.20;99554.94;5049490;28;20239;-62
2022/03/09 01:13:12;;;;;;;33.60;23.90;;;;;;;3.04;85.95;99554.13;5035975;28;20188;-61
2022/03/09 01:15:39;;;;;;;29.87;22.83;;;;;;;2.95;85.69;99550.38;5049399;28;20687;-61
2022/03/09 01:18:06;;;;;;;32.60;22.30;;;;;;;2.89;85.71;99547.53;5049354;28;20198;-62
2022/03/09 01:20:34;;;;;;;33.23;24.40;;;;;;;2.88;85.40;99548.31;5045789;28;20286;-62
2022/03/09 01:23:01;;;;;;;33.57;24.23;;;;;;;2.69;85.23;99524.59;5049415;28;20198;-61
2022/03/09 01:25:28;;;;;;;32.73;21.97;;;;;;;2.78;84.67;99542.75;5049564;28;20231;-62
2022/03/09 01:27:55;;;;;;;35.07;23.53;;;;;;;2.78;84.99;99548.69;5049908;28;20649;-61
2022/03/09 01:30:22;;;;;;;32.00;24.00;;;;;;;2.72;85.17;99543.34;5053527;28;20255;-61
2022/03/09 01:32:49;;;;;;;33.37;23.00;;;;;;;2.76;84.80;99545.22;5053524;28;20223;-62
2022/03/09 01:35:16;;;;;;;35.13;28.77;;;;;;;2.79;84.84;99545.38;5052452;28;20435;-62
2022/03/09 01:37:45;;;;;;;31.77;24.23;;;;;;;2.69;84.29;99504.28;5053492;28;20661;-62
2022/03/09 01:40:13;;;;;;;36.77;24.47;;;;;;;2.86;83.96;99544.84;5053531;28;20189;-62
2022/03/09 01:42:40;;;;;;;35.67;24.93;;;;;;;2.83;84.11;99547.25;5053453;28;20196;-61
2022/03/09 01:45:09;;;;;;;36.03;24.33;;;;;;;2.94;84.61;99547.75;5053154;28;20617;-61
2022/03/09 01:47:37;;;;;;;38.07;24.80;;;;;;;2.94;84.32;99545.22;5053110;28;20204;-60
2022/03/09 01:50:04;;;;;;;37.97;24.83;;;;;;;2.99;84.21;99544.63;5053504;28;20198;-61
2022/03/09 01:52:32;;;;;;;36.53;24.23;;;;;;;2.99;84.16;99543.78;5053302;28;20200;-61
2022/03/09 01:55:00;;;;;;;37.70;25.80;;;;;;;2.92;84.06;99544.28;5053062;28;20196;-61
2022/03/09 01:57:30;;;;;;;36.10;25.77;;;;;;;2.92;84.28;99544.28;5052961;28;20192;-61
2022/03/09 01:59:57;;;;;;;38.90;25.43;;;;;;;2.91;84.64;99545.94;5052908;28;20283;-62
2022/03/09 02:02:24;;;;;;;37.80;24.73;;;;;;;2.93;84.74;99548.56;5053026;28;20189;-61
2022/03/09 02:04:51;;;;;;;43.15;32.63;;;;;;;2.92;84.34;99537.53;5052085;28;20530;-61
2022/03/09 02:09:41;;;;;;;39.23;26.97;;;;;;;3.06;84.54;99550.00;5052933;28;20199;-62
2022/03/09 02:10:07;;;;;;;38.50;25.97;;;;;;;3.09;84.30;99555.22;5052807;28;20196;-61
2022/03/09 02:12:34;;;;;;;37.60;26.07;;;;;;;3.01;83.15;99544.72;5052965;28;20204;-60
2022/03/09 02:15:01;;;;;;;41.20;26.70;;;;;;;2.99;82.96;99547.16;5053242;28;20192;-62
2022/03/09 02:17:29;;;;;;;40.67;26.53;;;;;;;2.87;83.43;99548.28;5052833;28;20196;-61
2022/03/09 02:19:57;;;;;;;41.17;28.00;;;;;;;2.90;83.99;99564.53;5052642;28;20192;-60
2022/03/09 02:22:31;;;;;;;39.07;26.03;;;;;;;2.88;83.39;99561.00;5052909;28;20193;-62
2022/03/09 02:24:58;;;;;;;43.40;27.80;;;;;;;2.89;83.59;99561.88;5052695;28;20192;-61
2022/03/09 02:27:25;;;;;;;42.07;29.20;;;;;;;2.85;84.07;99560.91;5052862;28;20275;-61
2022/03/09 02:29:53;;;;;;;41.77;27.13;;;;;;;2.87;84.50;99564.38;5052380;28;20307;-62
2022/03/09 02:32:20;;;;;;;38.27;26.27;;;;;;;2.84;84.34;99558.28;5052481;28;20196;-61
2022/03/09 02:34:48;;;;;;;42.30;28.37;;;;;;;2.69;84.46;99527.13;5052502;28;20299;-62
2022/03/09 02:37:15;;;;;;;42.47;29.03;;;;;;;2.88;83.84;99555.94;5052351;28;20193;-62
2022/03/09 02:39:43;;;;;;;44.47;29.03;;;;;;;2.94;84.53;99552.81;5051014;28;20199;-61
2022/03/09 02:42:11;;;;;;;43.47;28.90;;;;;;;2.95;84.43;99541.88;5052147;28;20193;-62
2022/03/09 02:44:38;;;;;;;42.23;28.20;;;;;;;2.90;83.92;99548.41;5052391;28;20204;-60
2022/03/09 02:47:05;;;;;;;44.10;28.40;;;;;;;2.92;84.52;99559.50;5052406;28;20216;-60
2022/03/09 02:49:32;;;;;;;40.67;28.30;;;;;;;2.96;84.22;99549.59;5052189;28;20207;-60
2022/03/09 02:52:00;;;;;;;41.87;28.30;;;;;;;3.00;84.55;99553.13;5052201;28;20266;-62
2022/03/09 02:54:27;;;;;;;42.93;28.50;;;;;;;3.02;83.78;99556.63;5052276;28;20188;-62
2022/03/09 02:56:55;;;;;;;43.13;33.47;;;;;;;3.10;83.34;99554.44;5051074;28;20445;-61
2022/03/09 02:59:22;;;;;;;40.87;29.07;;;;;;;3.09;82.42;99553.56;5052174;28;20218;-62
2022/03/09 03:01:49;;;;;;;43.47;28.37;;;;;;;3.13;83.14;99557.09;5051763;28;20196;-62
2022/03/09 03:04:16;;;;;;;43.60;32.15;;;;;;;3.12;82.58;99555.34;5051260;28;20538;-61
2022/03/09 03:06:43;;;;;;;40.37;27.53;;;;;;;3.20;82.57;99559.13;5051679;28;20299;-61
2022/03/09 03:09:09;;;;;;;43.37;28.77;;;;;;;3.20;82.20;99560.00;5051590;28;20203;-61
2022/03/09 03:11:36;;;;;;;42.03;28.23;;;;;;;3.18;82.38;99560.72;5051861;28;20196;-61
2022/03/09 03:14:05;;;;;;;44.53;28.70;;;;;;;3.17;82.41;99554.78;5051881;28;20204;-59
2022/03/09 03:16:32;;;;;;;40.13;27.87;;;;;;;3.10;82.27;99554.44;5051600;28;20283;-58
2022/03/09 03:18:58;;;;;;;44.17;29.43;;;;;;;3.15;82.73;99566.53;5051360;28;20283;-58
2022/03/09 03:21:25;;;;;;;42.03;28.53;;;;;;;3.15;82.59;99550.44;5051406;28;20188;-59
2022/03/09 03:23:52;;;;;;;43.00;29.17;;;;;;;3.16;83.38;99562.34;5051385;28;20281;-59
2022/03/09 03:26:19;;;;;;;43.17;28.13;;;;;;;3.19;83.07;99558.25;5051416;28;20688;-58
2022/03/09 03:28:46;;;;;;;41.83;29.13;;;;;;;3.20;82.59;99556.59;5051395;28;20193;-59
2022/03/09 03:31:14;;;;;;;41.47;28.27;;;;;;;3.16;82.74;99563.19;5051511;28;20193;-58
2022/03/09 03:33:41;;;;;;;42.73;30.43;;;;;;;3.14;82.05;99558.84;5051022;28;20446;-59
2022/03/09 03:36:08;;;;;;;41.93;29.03;;;;;;;3.14;82.19;99558.84;5051508;28;20518;-57
2022/03/09 03:38:35;;;;;;;44.50;29.70;;;;;;;3.05;82.13;99555.88;5051106;28;20674;-59
2022/03/09 03:41:02;;;;;;;42.03;28.40;;;;;;;3.01;82.11;99561.59;5051280;28;20288;-58
2022/03/09 03:43:28;;;;;;;45.40;28.90;;;;;;;3.02;82.42;99553.22;5051001;28;20193;-58
2022/03/09 03:45:55;;;;;;;43.50;28.63;;;;;;;3.01;82.14;99561.59;5050933;28;20720;-58
2022/03/09 03:48:24;;;;;;;43.77;29.93;;;;;;;3.02;82.39;99554.09;5050919;28;20196;-58
2022/03/09 03:50:50;;;;;;;44.17;29.43;;;;;;;3.01;82.73;99559.94;5050453;28;20283;-59
2022/03/09 03:53:17;;;;;;;42.47;29.17;;;;;;;3.06;82.68;99555.94;5051043;28;20219;-58
2022/03/09 03:55:45;;;;;;;46.03;29.23;;;;;;;3.01;82.42;99556.53;5050924;28;20190;-58
2022/03/09 03:58:12;;;;;;;42.43;28.43;;;;;;;3.02;82.55;99559.16;5050835;28;20259;-58
2022/03/09 04:00:39;;;;;;;39.57;28.27;;;;;;;2.81;82.92;99523.47;5050732;28;20709;-57
2022/03/09 04:03:06;;;;;;;42.37;27.53;;;;;;;3.00;82.24;99555.66;5050731;28;20537;-57
2022/03/09 04:05:34;;;;;;;47.35;35.88;;;;;;;3.07;82.43;99561.91;5049395;28;20450;-57
2022/03/09 04:08:01;;;;;;;42.93;30.37;;;;;;;3.13;81.68;99552.03;5050711;28;20204;-58
2022/03/09 04:10:28;;;;;;;44.67;30.67;;;;;;;3.14;81.88;99558.84;5050563;28;20197;-58
2022/03/09 04:12:56;;;;;;;43.93;30.03;;;;;;;3.14;81.89;99547.00;5050466;28;20682;-58
2022/03/09 04:15:23;;;;;;;41.37;27.43;;;;;;;3.09;81.21;99555.22;5050618;28;20655;-59
2022/03/09 04:17:50;;;;;;;39.27;27.83;;;;;;;3.02;81.05;99554.09;5050459;28;20635;-58
2022/03/09 04:20:17;;;;;;;42.53;29.80;;;;;;;2.99;81.80;99567.47;5050538;28;20524;-58
2022/03/09 04:22:46;;;;;;;43.40;29.00;;;;;;;2.98;81.64;99560.66;5050233;28;20203;-60
2022/03/09 04:25:12;;;;;;;42.00;28.10;;;;;;;2.94;81.62;99551.16;5050519;28;20287;-58
2022/03/09 04:27:40;;;;;;;44.42;33.92;;;;;;;2.99;82.02;99554.78;5049592;28;20458;-58
2022/03/09 04:30:08;;;;;;;43.63;29.83;;;;;;;3.01;81.14;99559.94;5050345;28;20235;-58
2022/03/09 04:32:35;;;;;;;43.67;29.23;;;;;;;3.01;81.49;99561.59;5050381;28;20709;-59
2022/03/09 04:35:02;;;;;;;44.78;33.08;;;;;;;2.95;81.15;99558.00;5049758;28;20449;-59
2022/03/09 04:37:30;;;;;;;39.83;29.50;;;;;;;2.98;80.97;99552.19;5050483;28;20196;-58
2022/03/09 04:39:59;;;;;;;44.10;29.40;;;;;;;3.06;80.98;99562.69;5049518;28;20212;-58
2022/03/09 04:42:26;;;;;;;42.97;30.17;;;;;;;3.08;81.23;99563.66;5049991;28;20195;-58
2022/03/09 04:44:54;;;;;;;43.07;30.00;;;;;;;3.09;81.24;99562.84;5050094;28;20196;-58
2022/03/09 04:47:21;;;;;;;46.77;29.67;;;;;;;3.07;81.80;99562.78;5050252;28;20223;-59
2022/03/09 04:49:50;;;;;;;44.97;29.43;;;;;;;3.05;81.86;99559.28;5050357;28;20275;-58
2022/03/09 04:52:17;;;;;;;42.33;30.53;;;;;;;3.08;81.90;99563.66;5050281;28;20198;-58
2022/03/09 04:54:44;;;;;;;41.70;28.80;;;;;;;3.10;80.80;99562.03;5050171;28;20571;-58
2022/03/09 04:57:13;;;;;;;42.60;29.77;;;;;;;3.01;81.18;99567.56;5049648;28;20441;-58
2022/03/09 04:59:40;;;;;;;42.33;29.33;;;;;;;3.03;81.19;99568.50;5050321;28;20228;-58
2022/03/09 05:02:07;;;;;;;47.80;31.20;;;;;;;2.99;82.02;99564.94;5049852;28;20200;-58
2022/03/09 05:04:33;;;;;;;47.03;33.33;;;;;;;3.04;82.08;99570.25;5052789;28;20444;-58
2022/03/09 05:07:00;;;;;;;46.20;29.63;;;;;;;3.05;81.94;99569.41;5054148;28;20213;-58
2022/03/09 05:09:27;;;;;;;43.80;30.97;;;;;;;3.05;82.26;99579.56;5053884;28;20279;-58
2022/03/09 05:11:54;;;;;;;45.83;30.90;;;;;;;3.03;82.13;99571.03;5053027;28;20202;-58
2022/03/09 05:14:22;;;;;;;44.97;31.67;;;;;;;3.08;82.70;99584.78;5053702;28;20762;-58
2022/03/09 05:16:49;;;;;;;50.23;32.30;;;;;;;3.10;82.50;99579.81;5053678;28;20198;-58
2022/03/09 05:19:16;;;;;;;53.60;32.83;;;;;;;3.10;83.18;99584.88;5053724;28;20198;-58
2022/03/09 05:21:43;;;;;;;53.03;33.80;;;;;;;3.14;83.12;99582.53;5053609;28;20214;-59
2022/03/09 05:24:10;;;;;;;47.27;30.87;;;;;;;3.12;82.30;99594.31;5053536;28;20292;-58
2022/03/09 05:26:37;;;;;;;47.37;30.83;;;;;;;3.18;82.18;99596.25;5053587;28;20235;-58
2022/03/09 05:29:05;;;;;;;51.85;39.80;;;;;;;3.24;82.22;99597.41;5052300;28;20451;-58
2022/03/09 05:31:33;;;;;;;49.07;32.80;;;;;;;3.34;82.21;99604.66;5053450;28;20282;-58
2022/03/09 05:34:00;;;;;;;44.73;31.20;;;;;;;3.36;81.14;99609.78;5053173;28;20198;-58
2022/03/09 05:36:27;;;;;;;52.95;39.67;;;;;;;3.38;81.64;99611.59;5052220;28;20434;-59
2022/03/09 05:38:53;;;;;;;46.87;32.47;;;;;;;3.23;80.73;99610.91;5053422;28;20186;-59
2022/03/09 05:41:21;;;;;;;45.33;30.40;;;;;;;3.24;80.37;99615.16;5053319;28;20291;-59
2022/03/09 05:43:49;;;;;;;44.10;30.27;;;;;;;3.15;80.75;99617.31;5053209;28;20219;-59
2022/03/09 05:46:16;;;;;;;48.60;31.30;;;;;;;3.05;80.08;99624.41;5053091;28;20202;-59
2022/03/09 05:48:44;;;;;;;43.70;30.17;;;;;;;3.08;81.54;99619.47;5053107;28;20200;-59
2022/03/09 05:51:11;;;;;;;45.00;31.27;;;;;;;3.13;81.86;99623.09;5044615;28;20201;-59
2022/03/09 05:53:39;;;;;;;47.00;30.00;;;;;;;3.04;81.95;99632.81;5052917;28;20196;-59
2022/03/09 05:56:06;;;;;;;48.77;32.07;;;;;;;3.07;82.38;99638.03;5052823;28;20214;-59
2022/03/09 05:58:33;;;;;;;44.80;30.00;;;;;;;3.06;82.15;99641.34;5053120;28;20197;-59
2022/03/09 06:01:00;;;;;;;45.00;30.63;;;;;;;3.07;82.21;99638.91;5052515;28;20195;-58
2022/03/09 06:03:27;;;;;;;45.07;28.40;;;;;;;3.03;81.84;99639.56;5052826;28;20289;-58
2022/03/09 06:05:55;;;;;;;47.10;31.40;;;;;;;3.05;82.70;99644.72;5052513;28;20275;-59
2022/03/09 06:08:22;;;;;;;47.63;30.10;;;;;;;3.04;82.87;99648.03;5052984;28;20303;-59
2022/03/09 06:10:49;;;;;;;46.33;30.83;;;;;;;3.01;82.53;99645.34;5052741;28;20668;-59
2022/03/09 06:13:16;;;;;;;48.73;34.03;;;;;;;2.95;83.14;99646.81;5051091;28;20574;-59
2022/03/09 06:15:44;;;;;;;42.63;30.20;;;;;;;2.90;82.71;99654.97;5050573;28;20212;-59
2022/03/09 06:18:11;;;;;;;45.87;29.20;;;;;;;2.86;82.85;99655.63;5047994;28;20198;-61
2022/03/09 06:20:39;;;;;;;45.30;30.20;;;;;;;2.88;83.51;99656.59;5051575;28;20369;-61
2022/03/09 06:23:07;;;;;;;45.43;30.87;;;;;;;2.91;83.58;99657.59;5052085;28;20301;-61
2022/03/09 06:25:35;;;;;;;49.40;31.33;;;;;;;2.94;83.60;99655.19;5052646;28;20265;-61
2022/03/09 06:28:02;;;;;;;49.80;32.58;;;;;;;2.90;83.38;99655.88;5052109;28;20934;-60
2022/03/09 06:30:30;;;;;;;46.57;30.90;;;;;;;2.87;83.41;99659.91;5052425;28;20228;-61
2022/03/09 06:32:56;;;;;;;49.43;31.30;;;;;;;2.81;83.19;99664.66;5051936;28;20705;-61
2022/03/09 06:35:23;;;;;;;47.70;31.97;;;;;;;2.87;84.23;99658.25;5048550;28;20283;-58
2022/03/09 06:37:50;;;;;;;47.97;30.57;;;;;;;2.94;83.90;99657.72;5051460;28;20199;-59
2022/03/09 06:40:18;;;;;;;48.60;31.83;;;;;;;2.95;83.41;99666.22;5051786;28;20242;-58
2022/03/09 06:42:46;;;;;;;47.33;31.40;;;;;;;2.98;83.78;99658.75;5049225;28;20185;-59
2022/03/09 06:45:13;;;;;;;50.93;32.13;;;;;;;2.94;83.59;99657.72;5047843;28;20192;-59
2022/03/09 06:47:40;;;;;;;45.30;30.37;;;;;;;2.85;83.64;99659.84;5051391;28;20224;-59
2022/03/09 06:50:08;;;;;;;47.07;30.67;;;;;;;2.79;84.20;99669.69;5051592;28;20303;-59
2022/03/09 06:52:35;;;;;;;45.67;30.80;;;;;;;2.67;84.68;99670.72;5051325;28;20196;-58
2022/03/09 06:55:04;;;;;;;50.80;31.13;;;;;;;2.75;84.95;99665.25;5047765;28;20215;-58
2022/03/09 06:57:32;;;;;;;48.30;31.10;;;;;;;2.80;84.79;99678.19;5050588;28;20220;-58
2022/03/09 07:00:00;;;;;;;45.23;30.00;;;;;;;2.89;84.34;99673.53;5052484;28;20684;-58
2022/03/09 07:02:27;;;;;;;49.70;30.83;;;;;;;2.97;85.34;99668.03;5051266;28;20635;-58
2022/03/09 07:04:54;;;;;;;49.03;32.13;;;;;;;3.09;84.45;99675.38;5051049;28;20588;-58
2022/03/09 07:07:21;;;;;;;49.47;34.80;;;;;;;3.12;83.98;99669.56;5050109;28;20451;-58
2022/03/09 07:09:48;;;;;;;46.63;31.53;;;;;;;3.13;83.25;99676.41;5049891;28;20192;-59
2022/03/09 07:12:15;;;;;;;47.67;30.73;;;;;;;3.10;82.55;99673.72;5050740;28;20674;-58
2022/03/09 07:14:43;;;;;;;47.30;31.93;;;;;;;3.15;83.29;99672.28;5051078;28;20203;-58
2022/03/09 07:17:10;;;;;;;47.17;30.53;;;;;;;3.23;83.13;99668.44;5050958;28;20185;-58
2022/03/09 07:19:37;;;;;;;52.10;31.73;;;;;;;3.16;82.75;99679.94;5050749;28;20673;-58
2022/03/09 07:22:04;;;;;;;44.03;29.27;;;;;;;3.24;83.21;99672.72;5051068;28;20207;-57
2022/03/09 07:24:31;;;;;;;41.30;28.20;;;;;;;3.29;82.84;99677.22;5050964;28;20196;-58
2022/03/09 07:26:58;;;;;;;40.10;28.53;;;;;;;3.33;82.43;99678.22;5050338;28;20216;-58
2022/03/09 07:29:25;;;;;;;44.03;30.57;;;;;;;3.25;82.95;99675.31;5050928;28;20750;-58
2022/03/09 07:31:53;;;;;;;39.47;26.83;;;;;;;3.24;82.46;99682.88;5051119;28;20199;-59
2022/03/09 07:34:22;;;;;;;42.73;28.07;;;;;;;3.27;81.56;99685.56;5051266;28;20195;-58
2022/03/09 07:36:49;;;;;;;40.80;28.47;;;;;;;3.34;82.43;99685.03;5050922;28;20575;-58
2022/03/09 07:39:17;;;;;;;41.30;28.93;;;;;;;3.47;82.08;99679.72;5051046;28;20202;-58
2022/03/09 07:41:44;;;;;;;44.10;29.20;;;;;;;3.55;81.67;99674.22;5050879;28;20279;-59
2022/03/09 07:44:10;;;;;;;41.20;28.13;;;;;;;3.68;81.12;99675.63;5050890;28;20638;-58
2022/03/09 07:46:37;;;;;;;47.60;31.57;;;;;;;3.70;81.38;99673.19;5050607;28;20208;-58
2022/03/09 07:49:05;;;;;;;41.70;29.67;;;;;;;3.78;80.28;99680.38;5050391;28;20192;-58
2022/03/09 07:51:32;;;;;;;43.43;29.33;;;;;;;3.78;80.47;99670.19;5050628;28;20190;-58
2022/03/09 07:53:59;;;;;;;42.50;28.03;;;;;;;3.94;80.09;99670.09;5050637;28;20207;-63
2022/03/09 07:56:26;;;;;;;42.20;28.70;;;;;;;3.90;79.59;99657.19;5050607;28;20661;-59
2022/03/09 07:58:53;;;;;;;40.67;29.17;;;;;;;4.05;78.85;99673.97;5049874;28;20950;-59
2022/03/09 08:01:20;;;;;;;43.17;28.23;;;;;;;4.13;78.32;99670.09;5050445;28;20200;-59
2022/03/09 08:03:47;;;;;;;37.07;26.90;;;;;;;4.11;78.40;99671.72;5049300;28;20200;-58
2022/03/09 08:06:15;;;;;;;43.53;28.53;;;;;;;4.24;77.45;99672.22;5050304;28;20203;-58
2022/03/09 08:08:42;;;;;;;39.10;27.33;;;;;;;4.25;76.55;99674.84;5050239;28;20220;-60
2022/03/09 08:11:09;;;;;;;38.40;26.07;;;;;;;4.38;76.31;99671.16;5050198;28;20206;-58
2022/03/09 08:13:36;;;;;;;39.33;27.90;;;;;;;4.16;76.51;99674.44;5050214;28;20287;-58
2022/03/09 08:16:02;;;;;;;41.57;27.83;;;;;;;4.48;77.45;99668.19;5050460;28;20193;-58
2022/03/09 08:18:29;;;;;;;41.93;29.40;;;;;;;4.48;76.02;99666.53;5050209;28;20685;-58
2022/03/09 08:20:56;;;;;;;43.17;29.13;;;;;;;4.76;76.86;99664.34;5050331;28;20208;-58
2022/03/09 08:23:24;;;;;;;40.90;28.90;;;;;;;4.88;76.64;99661.44;5049482;28;20227;-58
2022/03/09 08:25:51;;;;;;;42.00;28.60;;;;;;;4.85;75.08;99665.53;5050028;28;20383;-58
2022/03/09 08:28:19;;;;;;;44.00;33.85;;;;;;;4.93;74.68;99665.03;5046824;28;20526;-58
2022/03/09 08:30:46;;;;;;;41.77;30.10;;;;;;;4.96;74.24;99660.09;5049499;28;20703;-58
2022/03/09 08:33:14;;;;;;;43.10;30.67;;;;;;;5.10;74.93;99669.16;5049043;28;20277;-58
2022/03/09 08:35:42;;;;;;;48.17;31.17;;;;;;;5.44;76.09;99667.94;5049779;28;20283;-58
2022/03/09 08:38:09;;;;;;;42.87;28.03;;;;;;;5.26;73.50;99666.41;5049641;28;20196;-58
2022/03/09 08:40:37;;;;;;;44.83;31.70;;;;;;;5.30;73.71;99660.59;5043329;28;20208;-59
2022/03/09 08:43:04;;;;;;;45.97;30.33;;;;;;;5.13;74.18;99664.19;5048862;28;20196;-59
2022/03/09 08:45:31;;;;;;;42.97;29.03;;;;;;;5.21;73.79;99660.28;5049300;28;20272;-59
2022/03/09 08:47:58;;;;;;;41.38;31.83;;;;;;;5.17;72.88;99657.50;5040977;28;20457;-59
2022/03/09 08:50:25;;;;;;;38.80;29.13;;;;;;;5.30;72.51;99663.16;5039913;28;20303;-57
2022/03/09 08:52:54;;;;;;;46.83;31.07;;;;;;;5.46;73.18;99653.59;5029640;28;20202;-57
2022/03/09 08:55:21;;;;;;;41.53;29.07;;;;;;;5.39;71.71;99660.09;5043591;28;20603;-59
2022/03/09 08:57:49;;;;;;;37.57;27.27;;;;;;;5.38;69.69;99655.84;5049097;28;20232;-58
2022/03/09 09:00:16;;;;;;;41.97;27.20;;;;;;;5.48;68.65;99655.38;5048842;28;20300;-62
2022/03/09 09:02:43;;;;;;;39.77;27.17;;;;;;;5.43;67.56;99649.25;5028299;28;20200;-61
2022/03/09 09:05:10;;;;;;;39.80;26.47;;;;;;;5.52;69.66;99643.63;5028739;28;20193;-61
2022/03/09 09:07:37;;;;;;;38.47;26.20;;;;;;;5.49;68.86;99652.03;5029189;28;20214;-63
2022/03/09 09:10:06;;;;;;;42.63;28.50;;;;;;;5.67;68.58;99642.53;5030142;28;20221;-61
2022/03/09 09:12:33;;;;;;;38.43;27.20;;;;;;;5.61;69.46;99606.59;5047645;28;20203;-62
2022/03/09 09:15:01;;;;;;;39.27;28.57;;;;;;;5.99;68.04;99648.84;5048660;28;20189;-62
2022/03/09 09:17:28;;;;;;;38.80;25.80;;;;;;;5.90;66.81;99645.97;5047218;28;21749;-61
2022/03/09 09:19:55;;;;;;;39.40;27.70;;;;;;;5.99;66.23;99653.09;5045358;28;20197;-61
2022/03/09 09:22:22;;;;;;;39.83;26.73;;;;;;;5.80;66.89;99646.38;5048693;28;20198;-61
2022/03/09 09:24:49;;;;;;;41.03;28.33;;;;;;;6.00;66.53;99640.38;5048112;28;20305;-62
2022/03/09 09:27:16;;;;;;;40.53;27.57;;;;;;;6.26;65.96;99649.00;5049280;28;20203;-61
2022/03/09 09:29:43;;;;;;;38.07;25.70;;;;;;;5.95;64.22;99647.00;5049067;28;20229;-60
2022/03/09 09:32:11;;;;;;;42.47;28.27;;;;;;;6.17;64.96;99641.88;5049548;28;20210;-61
2022/03/09 09:34:38;;;;;;;32.93;23.93;;;;;;;6.21;64.15;99653.03;5049608;28;20751;-61
2022/03/09 09:37:05;;;;;;;38.60;25.63;;;;;;;5.92;65.18;99650.31;5049350;28;20218;-61
2022/03/09 09:39:32;;;;;;;35.63;25.40;;;;;;;5.90;64.72;99651.06;5049745;28;20225;-61
2022/03/09 09:41:59;;;;;;;36.07;26.30;;;;;;;5.79;65.83;99645.53;5049336;28;20192;-61
2022/03/09 09:44:26;;;;;;;32.10;23.97;;;;;;;5.96;63.83;99627.47;5049519;28;20946;-61
2022/03/09 09:46:54;;;;;;;35.53;26.23;;;;;;;6.19;64.59;99645.34;5040680;28;21028;-62
2022/03/09 09:49:24;;;;;;;37.20;26.20;;;;;;;6.06;64.45;99611.69;5049270;28;20209;-62
2022/03/09 09:51:52;;;;;;;32.13;23.80;;;;;;;6.18;64.24;99637.66;5052408;28;20234;-60
2022/03/09 09:54:19;;;;;;;35.90;25.67;;;;;;;5.94;65.58;99640.16;5052676;28;20197;-61
2022/03/09 09:56:46;;;;;;;37.95;30.40;;;;;;;5.91;65.72;99609.44;5049265;28;20542;-60
2022/03/09 09:59:13;;;;;;;37.60;27.50;;;;;;;6.13;65.64;99639.13;5052838;28;20283;-62
2022/03/09 10:01:41;;;;;;;36.83;27.57;;;;;;;6.04;65.66;99637.16;5052637;28;20675;-62
2022/03/09 10:04:09;;;;;;;37.00;26.97;;;;;;;5.91;66.98;99617.97;5052366;28;20196;-61
2022/03/09 10:06:38;;;;;;;36.27;26.83;;;;;;;5.98;66.45;99629.28;5052622;28;20280;-62
2022/03/09 10:09:07;;;;;;;34.03;24.57;;;;;;;5.96;64.87;99625.78;5052555;28;20283;-62
2022/03/09 10:11:51;;;;;;;32.73;22.00;;;;;;;5.90;63.82;99630.69;5052281;28;20292;-61
2022/03/09 10:14:39;;;;;;;36.73;25.80;;;;;;;5.93;64.77;99621.44;5052037;28;20186;-57
2022/03/09 10:17:07;;;;;;;34.23;25.00;;;;;;;6.03;64.96;99620.09;5052227;28;20211;-57
2022/03/09 10:19:36;;;;;;;32.53;22.37;;;;;;;6.09;63.11;99610.13;5052108;28;20760;-58
2022/03/09 10:22:29;;;;;;;32.47;23.23;;;;;;;5.97;63.05;99616.44;5052160;28;20275;-58
2022/03/09 10:24:58;;;;;;;34.97;27.48;;;;;;;6.03;64.66;99599.69;5051460;28;20538;-58
2022/03/09 10:27:37;;;;;;;32.00;24.63;;;;;;;6.26;63.34;99611.56;5052305;28;20217;-62
2022/03/09 10:30:06;;;;;;;33.33;24.60;;;;;;;6.32;62.76;99609.22;5051117;28;20227;-62
2022/03/09 10:32:43;;;;;;;32.50;23.20;;;;;;;6.35;61.97;99595.72;5051160;28;20193;-61
2022/03/09 10:35:11;;;;;;;28.53;21.53;;;;;;;6.23;61.31;99608.94;5051517;28;20206;-61
2022/03/09 10:37:43;;;;;;;34.50;24.83;;;;;;;6.09;62.69;99561.66;5051627;28;20196;-58
2022/03/09 10:40:12;;;;;;;31.03;21.90;;;;;;;6.23;62.39;99603.84;5051266;28;20197;-58
2022/03/09 10:42:39;;;;;;;29.27;21.07;;;;;;;6.09;60.40;99568.44;5050858;28;20289;-57
2022/03/09 10:45:08;;;;;;;29.23;21.80;;;;;;;6.27;61.38;99590.34;5051540;28;20226;-58
2022/03/09 10:47:36;;;;;;;31.13;24.00;;;;;;;6.39;62.64;99593.34;5051900;28;20194;-58
2022/03/09 10:50:18;;;;;;;33.63;22.03;;;;;;;6.45;62.22;99591.00;5054287;28;20196;-58
2022/03/09 10:52:49;;;;;;;34.87;23.47;;;;;;;6.56;62.26;99586.25;5053836;28;20205;-58
2022/03/09 10:55:29;;;;;;;31.77;23.10;;;;;;;6.65;63.24;99583.97;5052165;28;20670;-59
2022/03/09 10:58:10;;;;;;;30.00;20.73;;;;;;;6.50;61.51;99580.94;5051585;28;21106;-58
2022/03/09 11:00:39;;;;;;;29.27;21.60;;;;;;;6.51;61.63;99586.06;5036535;28;20209;-59
2022/03/09 11:03:08;;;;;;;29.00;21.53;;;;;;;6.50;62.09;99578.38;5031583;28;20204;-58
2022/03/09 11:05:35;;;;;;;31.80;21.80;;;;;;;6.40;62.10;99573.78;5035113;28;20255;-58
2022/03/09 11:08:04;;;;;;;32.13;23.20;;;;;;;6.58;62.09;99576.06;5051531;28;20374;-58
2022/03/09 11:10:32;;;;;;;28.00;20.77;;;;;;;6.69;60.57;99574.75;5044316;28;20207;-60
2022/03/09 11:12:59;;;;;;;30.00;22.17;;;;;;;6.73;60.22;99569.78;5031617;28;20201;-59
2022/03/09 11:15:27;;;;;;;28.43;21.50;;;;;;;6.84;60.36;99565.88;5031331;28;20666;-59
2022/03/09 11:17:55;;;;;;;29.00;21.30;;;;;;;7.02;59.40;99568.16;5033639;28;20204;-61
2022/03/09 11:20:22;;;;;;;30.37;21.97;;;;;;;7.13;58.13;99556.59;5043566;28;20195;-61
2022/03/09 11:22:51;;;;;;;27.20;20.98;;;;;;;7.13;56.56;99559.13;5049952;28;20514;-61
2022/03/09 11:25:22;;;;;;;27.33;19.73;;;;;;;7.12;56.62;99549.72;5050895;28;20199;-61
2022/03/09 11:27:51;;;;;;;25.70;18.93;;;;;;;7.18;56.06;99557.59;5050864;28;20198;-62